createdAt,value
2018-09-02T00:00:11.805Z,37.03
2018-09-02T00:02:40.887Z,36.78
2018-09-02T00:05:09.970Z,37.11
2018-09-02T00:07:39.070Z,37.00
2018-09-02T00:10:08.521Z,37.01
2018-09-02T00:12:37.582Z,36.88
2018-09-02T00:15:06.744Z,36.94
2018-09-02T00:17:35.910Z,37.04
2018-09-02T00:20:05.188Z,37.26
2018-09-02T00:22:34.272Z,36.98
2018-09-02T00:25:03.385Z,37.22
2018-09-02T00:27:32.471Z,37.25
2018-09-02T00:30:01.553Z,37.21
2018-09-02T00:32:30.639Z,36.73
2018-09-02T00:34:59.943Z,36.73
2018-09-02T00:37:29.047Z,37.05
2018-09-02T00:39:58.215Z,37.21
2018-09-02T00:42:27.358Z,36.95
2018-09-02T00:44:56.446Z,37.07
2018-09-02T00:47:25.631Z,36.96
2018-09-02T00:49:54.726Z,37.26
2018-09-02T00:52:23.830Z,37.28
2018-09-02T00:54:52.924Z,37.07
2018-09-02T00:57:22.071Z,36.56
2018-09-02T00:59:51.127Z,36.90
2018-09-02T01:02:20.298Z,37.07
2018-09-02T01:04:49.425Z,37.07
2018-09-02T01:07:18.470Z,37.21
2018-09-02T01:09:47.637Z,36.98
2018-09-02T01:12:16.703Z,36.94
2018-09-02T01:14:45.840Z,36.97
2018-09-02T01:17:14.997Z,37.03
2018-09-02T01:19:44.112Z,37.11
2018-09-02T01:22:13.478Z,36.79
2018-09-02T01:24:42.602Z,37.08
2018-09-02T01:27:11.686Z,37.36
2018-09-02T01:29:40.900Z,37.05
2018-09-02T01:32:09.972Z,37.21
2018-09-02T01:34:39.110Z,36.90
2018-09-02T01:37:08.159Z,37.12
2018-09-02T01:39:37.300Z,37.00
2018-09-02T01:42:06.556Z,37.04
2018-09-02T01:44:35.696Z,37.26
2018-09-02T01:47:05.180Z,37.20
2018-09-02T01:49:34.242Z,37.21
2018-09-02T01:52:03.315Z,37.18
2018-09-02T01:54:32.464Z,37.05
2018-09-02T01:57:01.686Z,37.10
2018-09-02T01:59:30.825Z,37.27
2018-09-02T02:02:00.069Z,37.57
2018-09-02T02:04:33.302Z,37.52
2018-09-02T02:07:02.622Z,37.37
2018-09-02T02:09:31.686Z,37.21
2018-09-02T02:12:00.852Z,37.30
2018-09-02T02:14:29.950Z,37.43
2018-09-02T02:16:59.368Z,37.61
2018-09-02T02:19:28.412Z,37.38
2018-09-02T02:21:57.544Z,37.37
2018-09-02T02:24:26.777Z,37.67
2018-09-02T02:26:56.056Z,37.70
2018-09-02T02:29:25.133Z,37.28
2018-09-02T02:31:54.212Z,37.49
2018-09-02T02:34:23.318Z,37.64
2018-09-02T02:36:52.512Z,37.71
2018-09-02T02:39:21.636Z,37.94
2018-09-02T02:41:50.692Z,37.59
2018-09-02T02:44:19.759Z,37.47
2018-09-02T02:46:48.933Z,37.38
2018-09-02T02:49:17.998Z,37.88
2018-09-02T02:51:47.182Z,37.61
2018-09-02T02:54:16.246Z,37.90
2018-09-02T02:56:45.386Z,37.95
2018-09-02T02:59:14.474Z,37.78
2018-09-02T03:01:43.607Z,37.69
2018-09-02T03:04:12.770Z,37.72
2018-09-02T03:06:42.262Z,38.12
2018-09-02T03:09:12.408Z,37.64
2018-09-02T03:11:41.686Z,37.82
2018-09-02T03:14:11.280Z,37.91
2018-09-02T03:16:40.585Z,38.12
2018-09-02T03:19:10.070Z,37.90
2018-09-02T03:21:39.324Z,37.79
2018-09-02T03:24:08.407Z,37.78
2018-09-02T03:26:37.502Z,38.22
2018-09-02T03:29:06.594Z,38.23
2018-09-02T03:31:35.693Z,38.09
2018-09-02T03:34:04.813Z,38.01
2018-09-02T03:36:33.931Z,38.11
2018-09-02T03:39:03.386Z,38.27
2018-09-02T03:41:32.483Z,37.98
2018-09-02T03:44:01.560Z,38.42
2018-09-02T03:46:30.677Z,38.45
2018-09-02T03:48:59.811Z,38.19
2018-09-02T03:51:28.870Z,38.07
2018-09-02T03:53:57.939Z,38.39
2018-09-02T03:56:27.087Z,38.29
2018-09-02T03:58:56.150Z,38.13
2018-09-02T04:01:25.258Z,38.31
2018-09-02T04:03:54.372Z,38.34
2018-09-02T04:06:23.750Z,38.12
2018-09-02T04:08:53.086Z,38.60
2018-09-02T04:11:22.202Z,38.30
2018-09-02T04:13:51.358Z,38.58
2018-09-02T04:16:20.455Z,38.57
2018-09-02T04:18:49.551Z,38.41
2018-09-02T04:21:18.671Z,38.44
2018-09-02T04:23:47.723Z,38.31
2018-09-02T04:26:16.861Z,38.35
2018-09-02T04:28:45.945Z,38.50
2018-09-02T04:31:15.153Z,38.53
2018-09-02T04:33:44.330Z,38.56
2018-09-02T04:36:13.549Z,38.67
2018-09-02T04:38:42.647Z,38.63
2018-09-02T04:41:12.051Z,38.64
2018-09-02T04:43:41.191Z,38.64
2018-09-02T04:46:10.248Z,38.69
2018-09-02T04:48:39.337Z,38.69
2018-09-02T04:51:08.405Z,38.63
2018-09-02T04:53:37.520Z,38.84
2018-09-02T04:56:06.607Z,38.51
2018-09-02T04:58:35.701Z,38.75
2018-09-02T05:01:04.794Z,38.74
2018-09-02T05:03:33.843Z,38.93
2018-09-02T05:06:02.931Z,38.63
2018-09-02T05:08:31.979Z,39.19
2018-09-02T05:11:01.096Z,38.99
2018-09-02T05:13:30.268Z,38.85
2018-09-02T05:15:59.375Z,38.85
2018-09-02T05:18:28.486Z,38.72
2018-09-02T05:21:03.054Z,39.32
2018-09-02T05:23:32.123Z,39.22
2018-09-02T05:26:01.298Z,39.12
2018-09-02T05:28:30.383Z,38.89
2018-09-02T05:30:59.510Z,39.32
2018-09-02T05:33:28.591Z,39.15
2018-09-02T05:35:57.646Z,38.90
2018-09-02T05:38:26.951Z,39.41
2018-09-02T05:40:56.085Z,39.16
2018-09-02T05:43:25.175Z,38.98
2018-09-02T05:45:54.256Z,39.16
2018-09-02T05:48:23.354Z,39.26
2018-09-02T05:50:52.675Z,39.00
2018-09-02T05:53:21.744Z,39.31
2018-09-02T05:55:50.839Z,39.33
2018-09-02T05:58:19.936Z,39.38
2018-09-02T06:00:49.049Z,39.81
2018-09-02T06:03:18.116Z,39.54
2018-09-02T06:05:47.221Z,39.54
2018-09-02T06:08:16.307Z,39.66
2018-09-02T06:10:45.433Z,39.70
2018-09-02T06:13:14.507Z,39.61
2018-09-02T06:15:43.561Z,39.50
2018-09-02T06:18:12.615Z,39.70
2018-09-02T06:20:41.729Z,39.81
2018-09-02T06:23:10.790Z,39.57
2018-09-02T06:25:39.772Z,39.51
2018-09-02T06:28:08.899Z,39.50
2018-09-02T06:30:38.091Z,39.74
2018-09-02T06:33:07.174Z,39.87
2018-09-02T06:35:36.371Z,39.50
2018-09-02T06:38:05.693Z,40.02
2018-09-02T06:40:34.998Z,39.88
2018-09-02T06:43:04.271Z,39.64
2018-09-02T06:45:33.377Z,39.87
2018-09-02T06:48:02.797Z,39.74
2018-09-02T06:50:31.883Z,39.58
2018-09-02T06:53:00.962Z,39.27
2018-09-02T06:55:30.176Z,39.45
2018-09-02T06:58:00.303Z,39.58
2018-09-02T07:00:29.481Z,39.91
2018-09-02T07:02:58.574Z,39.64
2018-09-02T07:05:27.731Z,39.75
2018-09-02T07:07:56.867Z,39.87
2018-09-02T07:10:25.935Z,40.06
2018-09-02T07:12:56.059Z,39.77
2018-09-02T07:15:25.192Z,39.97
2018-09-02T07:17:54.300Z,39.56
2018-09-02T07:20:23.388Z,39.83
2018-09-02T07:22:52.580Z,39.76
2018-09-02T07:25:21.702Z,39.41
2018-09-02T07:27:50.893Z,39.32
2018-09-02T07:30:19.947Z,39.44
2018-09-02T07:32:49.081Z,39.53
2018-09-02T07:35:18.156Z,39.53
2018-09-02T07:37:47.220Z,39.21
2018-09-02T07:40:16.282Z,39.15
2018-09-02T07:42:45.572Z,39.29
2018-09-02T07:45:14.922Z,39.17
2018-09-02T07:47:44.067Z,38.89
2018-09-02T07:50:13.168Z,39.12
2018-09-02T07:52:42.340Z,39.07
2018-09-02T07:55:11.535Z,38.91
2018-09-02T07:57:40.762Z,38.78
2018-09-02T08:00:10.912Z,38.84
2018-09-02T08:02:40.752Z,39.13
2018-09-02T08:05:10.400Z,38.74
2018-09-02T08:07:39.573Z,39.10
2018-09-02T08:10:09.760Z,38.86
2018-09-02T08:12:39.085Z,39.01
2018-09-02T08:15:08.298Z,39.14
2018-09-02T08:17:37.447Z,39.02
2018-09-02T08:20:06.623Z,39.08
2018-09-02T08:22:36.575Z,39.01
2018-09-02T08:25:06.323Z,38.88
2018-09-02T08:27:35.435Z,39.07
2018-09-02T08:30:04.526Z,38.95
2018-09-02T08:32:33.617Z,38.99
2018-09-02T08:35:02.868Z,39.28
2018-09-02T08:37:32.029Z,39.11
2018-09-02T08:40:01.071Z,38.93
2018-09-02T08:42:30.154Z,39.00
2018-09-02T08:44:59.284Z,38.94
2018-09-02T08:47:28.375Z,38.96
2018-09-02T08:49:57.438Z,39.08
2018-09-02T08:52:26.588Z,39.08
2018-09-02T08:54:55.656Z,39.45
2018-09-02T08:57:24.748Z,39.14
2018-09-02T08:59:53.867Z,39.65
2018-09-02T09:02:22.989Z,40.02
2018-09-02T09:04:52.070Z,39.67
2018-09-02T09:07:21.211Z,40.57
2018-09-02T09:09:50.570Z,40.16
2018-09-02T09:12:19.644Z,39.72
2018-09-02T09:14:48.739Z,39.78
2018-09-02T09:17:17.813Z,39.80
2018-09-02T09:19:46.949Z,39.89
2018-09-02T09:22:16.005Z,40.11
2018-09-02T09:24:45.122Z,40.09
2018-09-02T09:27:14.260Z,40.16
2018-09-02T09:29:43.348Z,39.87
2018-09-02T09:32:12.448Z,39.42
2018-09-02T09:34:41.731Z,39.87
2018-09-02T09:37:10.908Z,39.96
2018-09-02T09:39:40.152Z,39.79
2018-09-02T09:42:09.222Z,39.86
2018-09-02T09:44:38.321Z,40.01
2018-09-02T09:47:07.519Z,40.15
2018-09-02T09:49:36.634Z,39.92
2018-09-02T09:52:06.260Z,40.03
2018-09-02T09:54:35.518Z,40.23
2018-09-02T09:57:04.589Z,39.88
2018-09-02T09:59:33.688Z,40.14
2018-09-02T10:02:02.944Z,40.32
2018-09-02T10:04:32.005Z,39.85
2018-09-02T10:07:01.100Z,40.04
2018-09-02T10:09:30.300Z,39.67
2018-09-02T10:11:59.405Z,39.79
2018-09-02T10:14:28.464Z,40.09
2018-09-02T10:16:57.593Z,40.14
2018-09-02T10:19:26.653Z,39.91
2018-09-02T10:21:55.775Z,40.20
2018-09-02T10:24:24.944Z,40.10
2018-09-02T10:26:53.992Z,39.80
2018-09-02T10:29:23.066Z,39.92
2018-09-02T10:31:52.173Z,40.22
2018-09-02T10:34:21.258Z,39.89
2018-09-02T10:36:50.391Z,39.69
2018-09-02T10:39:19.460Z,39.94
2018-09-02T10:41:48.594Z,39.90
2018-09-02T10:44:17.665Z,39.88
2018-09-02T10:46:46.847Z,39.82
2018-09-02T10:49:15.934Z,39.65
2018-09-02T10:51:45.000Z,39.61
2018-09-02T10:54:14.055Z,40.19
2018-09-02T10:56:43.236Z,39.72
2018-09-02T10:59:12.378Z,40.12
2018-09-02T11:01:41.497Z,39.85
2018-09-02T11:04:10.734Z,40.26
2018-09-02T11:06:40.020Z,39.96
2018-09-02T11:09:10.681Z,39.38
2018-09-02T11:11:39.949Z,39.69
2018-09-02T11:14:09.881Z,39.75
2018-09-02T11:16:39.272Z,39.85
2018-09-02T11:19:08.665Z,39.67
2018-09-02T11:21:37.771Z,39.38
2018-09-02T11:24:06.959Z,39.62
2018-09-02T11:26:36.022Z,39.38
2018-09-02T11:29:05.179Z,39.27
2018-09-02T11:31:34.247Z,39.77
2018-09-02T11:34:03.396Z,39.73
2018-09-02T11:36:32.652Z,40.02
2018-09-02T11:39:01.749Z,39.90
2018-09-02T11:41:30.859Z,40.12
2018-09-02T11:43:59.886Z,40.45
2018-09-02T11:46:29.041Z,40.56
2018-09-02T11:48:58.152Z,40.14
2018-09-02T11:51:27.328Z,40.21
2018-09-02T11:53:56.441Z,39.86
2018-09-02T11:56:25.534Z,39.72
2018-09-02T11:58:54.627Z,38.99
2018-09-02T12:01:23.729Z,39.17
2018-09-02T12:03:53.029Z,39.27
2018-09-02T12:06:22.324Z,39.44
2018-09-02T12:08:51.420Z,39.25
2018-09-02T12:11:20.510Z,38.59
2018-09-02T12:13:49.715Z,38.56
2018-09-02T12:16:18.784Z,38.29
2018-09-02T12:18:47.907Z,37.32
2018-09-02T12:21:16.978Z,36.82
2018-09-02T12:23:46.214Z,36.56
2018-09-02T12:26:15.294Z,36.78
2018-09-02T12:28:44.388Z,36.26
2018-09-02T12:31:13.448Z,35.85
2018-09-02T12:33:42.576Z,35.93
2018-09-02T12:36:11.754Z,35.68
2018-09-02T12:38:40.881Z,35.69
2018-09-02T12:41:09.978Z,35.72
2018-09-02T12:43:39.062Z,36.09
2018-09-02T12:46:08.168Z,35.95
2018-09-02T12:48:37.251Z,35.71
2018-09-02T12:51:06.598Z,36.00
2018-09-02T12:53:35.818Z,35.79
2018-09-02T12:56:05.042Z,35.80
2018-09-02T12:58:34.146Z,35.51
2018-09-02T13:01:03.237Z,35.57
2018-09-02T13:03:32.516Z,35.44
2018-09-02T13:06:01.639Z,35.81
2018-09-02T13:08:30.852Z,35.43
2018-09-02T13:10:59.949Z,35.76
2018-09-02T13:13:29.108Z,35.40
2018-09-02T13:15:58.227Z,35.73
2018-09-02T13:18:27.309Z,35.46
2018-09-02T13:20:56.422Z,35.47
2018-09-02T13:23:25.540Z,35.96
2018-09-02T13:25:54.716Z,35.84
2018-09-02T13:28:23.813Z,35.54
2018-09-02T13:30:53.108Z,35.70
2018-09-02T13:33:22.160Z,35.63
2018-09-02T13:35:51.243Z,35.53
2018-09-02T13:38:20.362Z,35.63
2018-09-02T13:40:49.509Z,35.67
2018-09-02T13:43:18.910Z,35.56
2018-09-02T13:45:48.066Z,35.68
2018-09-02T13:48:17.347Z,37.92
2018-09-02T13:50:46.584Z,37.90
2018-09-02T13:53:15.694Z,37.93
2018-09-02T13:55:44.771Z,37.46
2018-09-02T13:58:13.832Z,36.91
2018-09-02T14:00:42.976Z,36.83
2018-09-02T14:03:12.189Z,35.27
2018-09-02T14:05:41.299Z,34.54
2018-09-02T14:08:10.429Z,34.21
2018-09-02T14:10:39.733Z,33.73
2018-09-02T14:13:09.039Z,33.81
2018-09-02T14:15:38.179Z,33.02
2018-09-02T14:18:07.433Z,32.92
2018-09-02T14:20:36.588Z,32.86
2018-09-02T14:23:05.767Z,32.85
2018-09-02T14:25:34.892Z,32.45
2018-09-02T14:28:04.071Z,32.34
2018-09-02T14:30:33.351Z,32.62
2018-09-02T14:33:02.539Z,32.61
2018-09-02T14:35:31.643Z,32.40
2018-09-02T14:38:01.071Z,32.43
2018-09-02T14:40:30.140Z,32.03
2018-09-02T14:42:59.251Z,32.08
2018-09-02T14:45:28.359Z,31.78
2018-09-02T14:47:57.400Z,32.25
2018-09-02T14:50:26.523Z,31.76
2018-09-02T14:52:55.628Z,31.55
2018-09-02T14:55:24.740Z,31.45
2018-09-02T14:57:54.020Z,31.34
2018-09-02T15:00:23.096Z,31.73
2018-09-02T15:02:52.180Z,31.62
2018-09-02T15:05:21.331Z,31.98
2018-09-02T15:07:50.508Z,32.05
2018-09-02T15:10:19.575Z,32.36
2018-09-02T15:12:48.691Z,32.21
2018-09-02T15:15:18.064Z,31.98
2018-09-02T15:17:47.148Z,32.14
2018-09-02T15:20:16.343Z,31.93
2018-09-02T15:22:45.510Z,32.20
2018-09-02T15:25:14.728Z,32.28
2018-09-02T15:27:44.121Z,32.30
2018-09-02T15:30:13.283Z,32.41
2018-09-02T15:32:42.388Z,32.45
2018-09-02T15:35:11.572Z,32.36
2018-09-02T15:37:40.689Z,32.72
2018-09-02T15:40:09.998Z,32.57
2018-09-02T15:42:39.079Z,32.34
2018-09-02T15:45:08.466Z,32.09
2018-09-02T15:47:37.591Z,32.20
2018-09-02T15:50:07.263Z,32.25
2018-09-02T15:52:42.695Z,32.47
2018-09-02T15:55:11.789Z,32.16
2018-09-02T15:57:40.858Z,32.42
2018-09-02T16:00:10.142Z,32.54
2018-09-02T16:02:39.203Z,32.31
2018-09-02T16:05:08.328Z,32.28
2018-09-02T16:07:37.490Z,32.56
2018-09-02T16:10:06.615Z,32.52
2018-09-02T16:12:35.798Z,32.64
2018-09-02T16:15:05.119Z,32.73
2018-09-02T16:17:34.263Z,32.59
2018-09-02T16:20:03.428Z,32.84
2018-09-02T16:22:32.829Z,32.61
2018-09-02T16:25:02.014Z,32.63
2018-09-02T16:27:31.325Z,32.61
2018-09-02T16:30:00.533Z,32.39
2018-09-02T16:32:32.091Z,32.75
2018-09-02T16:35:01.325Z,32.42
2018-09-02T16:37:30.455Z,32.63
2018-09-02T16:39:59.634Z,32.29
2018-09-02T16:42:29.671Z,32.23
2018-09-02T16:44:59.115Z,32.89
2018-09-02T16:47:28.270Z,32.62
2018-09-02T16:49:57.439Z,33.06
2018-09-02T16:52:26.535Z,32.75
2018-09-02T16:54:55.663Z,32.81
2018-09-02T16:57:24.747Z,32.70
2018-09-02T16:59:53.951Z,32.89
2018-09-02T17:02:23.035Z,32.89
2018-09-02T17:04:54.683Z,33.23
2018-09-02T17:07:23.768Z,33.41
2018-09-02T17:09:52.851Z,33.49
2018-09-02T17:12:22.034Z,33.37
2018-09-02T17:14:51.297Z,33.91
2018-09-02T17:17:20.396Z,34.43
2018-09-02T17:19:52.128Z,34.48
2018-09-02T17:22:21.235Z,34.71
2018-09-02T17:24:50.311Z,34.83
2018-09-02T17:27:19.367Z,35.44
2018-09-02T17:29:48.556Z,35.41
2018-09-02T17:32:19.561Z,35.34
2018-09-02T17:34:49.099Z,35.87
2018-09-02T17:37:18.179Z,35.63
2018-09-02T17:39:47.289Z,35.65
2018-09-02T17:42:16.375Z,35.89
2018-09-02T17:44:45.654Z,36.13
2018-09-02T17:47:20.185Z,35.97
2018-09-02T17:49:49.257Z,36.35
2018-09-02T17:52:18.388Z,36.69
2018-09-02T17:54:47.547Z,36.48
2018-09-02T17:57:16.688Z,36.87
2018-09-02T17:59:45.867Z,36.88
2018-09-02T18:02:15.093Z,36.93
2018-09-02T18:04:44.407Z,37.39
2018-09-02T18:07:13.583Z,37.48
2018-09-02T18:09:42.935Z,37.54
2018-09-02T18:12:12.078Z,37.64
2018-09-02T18:14:46.799Z,37.53
2018-09-02T18:17:16.017Z,37.70
2018-09-02T18:19:45.160Z,38.07
2018-09-02T18:22:14.658Z,38.11
2018-09-02T18:24:44.547Z,37.97
2018-09-02T18:27:14.212Z,37.89
2018-09-02T18:29:47.747Z,38.10
2018-09-02T18:32:17.354Z,38.02
2018-09-02T18:34:47.060Z,38.17
2018-09-02T18:37:16.272Z,37.95
2018-09-02T18:39:45.502Z,38.12
2018-09-02T18:42:15.229Z,38.36
2018-09-02T18:44:44.389Z,38.98
2018-09-02T18:47:13.932Z,38.94
2018-09-02T18:49:44.219Z,38.78
2018-09-02T18:52:15.597Z,38.93
2018-09-02T18:54:44.936Z,38.82
2018-09-02T18:57:14.013Z,38.64
2018-09-02T18:59:43.551Z,38.74
2018-09-02T19:02:12.775Z,38.72
2018-09-02T19:04:42.239Z,38.81
2018-09-02T19:07:12.578Z,38.70
2018-09-02T19:09:42.196Z,38.50
2018-09-02T19:12:12.009Z,38.78
2018-09-02T19:14:41.217Z,38.60
2018-09-02T19:17:10.408Z,38.77
2018-09-02T19:19:39.573Z,38.75
2018-09-02T19:22:09.102Z,39.00
2018-09-02T19:24:38.300Z,38.67
2018-09-02T19:27:07.487Z,38.45
2018-09-02T19:29:36.605Z,38.61
2018-09-02T19:32:06.171Z,38.70
2018-09-02T19:34:35.405Z,38.31
2018-09-02T19:37:04.831Z,38.44
2018-09-02T19:39:34.028Z,38.74
2018-09-02T19:42:03.242Z,38.81
2018-09-02T19:44:32.534Z,38.44
2018-09-02T19:47:02.340Z,38.72
2018-09-02T19:49:31.816Z,38.25
2018-09-02T19:52:01.102Z,38.43
2018-09-02T19:54:30.184Z,38.37
2018-09-02T19:56:59.327Z,38.74
2018-09-02T19:59:28.529Z,38.43
2018-09-02T20:01:57.629Z,38.54
2018-09-02T20:04:26.749Z,38.57
2018-09-02T20:06:55.855Z,38.49
2018-09-02T20:09:26.774Z,38.88
2018-09-02T20:11:55.849Z,38.44
2018-09-02T20:14:24.999Z,38.46
2018-09-02T20:16:55.588Z,38.66
2018-09-02T20:19:25.804Z,38.56
2018-09-02T20:21:57.310Z,38.66
2018-09-02T20:24:28.204Z,38.58
2018-09-02T20:26:58.413Z,38.77
2018-09-02T20:29:27.775Z,38.70
2018-09-02T20:31:57.268Z,38.75
2018-09-02T20:34:26.654Z,38.71
2018-09-02T20:36:55.985Z,38.49
2018-09-02T20:39:25.438Z,38.57
2018-09-02T20:41:55.270Z,38.29
2018-09-02T20:44:27.633Z,38.57
2018-09-02T20:46:58.041Z,38.35
2018-09-02T20:49:27.411Z,38.69
2018-09-02T20:51:56.489Z,38.44
2018-09-02T20:54:25.748Z,38.68
2018-09-02T20:56:55.243Z,38.43
2018-09-02T20:59:24.420Z,38.57
2018-09-02T21:01:53.633Z,38.96
2018-09-02T21:04:22.822Z,38.72
2018-09-02T21:06:51.981Z,38.71
2018-09-02T21:09:21.058Z,38.62
2018-09-02T21:11:50.210Z,38.92
2018-09-02T21:14:19.489Z,38.88
2018-09-02T21:16:48.556Z,38.99
2018-09-02T21:19:17.876Z,38.99
2018-09-02T21:21:47.044Z,38.86
2018-09-02T21:24:16.236Z,39.02
2018-09-02T21:26:45.308Z,38.91
2018-09-02T21:29:14.466Z,39.11
2018-09-02T21:31:43.668Z,38.86
2018-09-02T21:34:12.864Z,39.06
2018-09-02T21:36:42.156Z,39.10
2018-09-02T21:39:11.972Z,39.29
2018-09-02T21:41:41.210Z,39.37
2018-09-02T21:44:10.359Z,39.41
2018-09-02T21:46:39.488Z,39.03
2018-09-02T21:49:08.668Z,39.29
2018-09-02T21:51:37.830Z,39.04
2018-09-02T21:54:06.930Z,39.22
2018-09-02T21:56:36.065Z,39.19
2018-09-02T21:59:05.260Z,39.39
2018-09-02T22:01:34.786Z,39.44
2018-09-02T22:04:03.961Z,39.22
2018-09-02T22:06:34.046Z,39.08
2018-09-02T22:09:07.430Z,39.65
2018-09-02T22:11:38.076Z,39.66
2018-09-02T22:14:07.549Z,39.69
2018-09-02T22:16:36.716Z,39.65
2018-09-02T22:19:06.942Z,39.33
2018-09-02T22:21:36.343Z,39.47
2018-09-02T22:24:06.110Z,39.57
2018-09-02T22:26:35.455Z,39.53
2018-09-02T22:29:04.896Z,39.55
2018-09-02T22:31:34.394Z,39.67
2018-09-02T22:34:04.969Z,39.64
2018-09-02T22:36:34.580Z,39.71
2018-09-02T22:39:05.766Z,39.79
2018-09-02T22:41:34.885Z,39.78
2018-09-02T22:44:03.970Z,39.46
2018-09-02T22:46:33.035Z,39.93
2018-09-02T22:49:02.274Z,39.81
2018-09-02T22:51:31.656Z,39.52
2018-09-02T22:54:01.034Z,39.58
2018-09-02T22:56:30.365Z,39.54
2018-09-02T22:59:00.061Z,39.95
2018-09-02T23:01:29.512Z,39.71
2018-09-02T23:03:58.768Z,39.83
2018-09-02T23:06:28.075Z,39.77
2018-09-02T23:08:58.724Z,39.64
2018-09-02T23:11:27.902Z,39.83
2018-09-02T23:13:57.292Z,39.68
2018-09-02T23:16:26.486Z,39.58
2018-09-02T23:18:55.796Z,39.66
2018-09-02T23:21:24.890Z,40.00
2018-09-02T23:23:54.345Z,39.78
2018-09-02T23:26:23.472Z,39.86
2018-09-02T23:28:52.744Z,39.78
2018-09-02T23:31:21.890Z,39.86
2018-09-02T23:33:50.985Z,39.76
2018-09-02T23:36:20.294Z,39.64
2018-09-02T23:38:49.441Z,39.62
2018-09-02T23:41:18.530Z,39.60
2018-09-02T23:43:47.652Z,39.58
2018-09-02T23:46:16.984Z,40.07
2018-09-02T23:48:46.062Z,39.75
2018-09-02T23:51:15.138Z,40.01
2018-09-02T23:53:44.257Z,39.65
2018-09-02T23:56:13.333Z,39.66
2018-09-02T23:58:42.399Z,39.67
